Alexander Ziegler

Olheiro - Borussia Mönchengladbach
3 Abr 2027
Sábado
Processo

Personalidade

Adaptabilidade (18) Ambição (2) Controvérsia (1) Lealdade (4) Pressão (10) Profissionalismo (14) Espírito Esportivo (7) Temperamento (1)

Perfil

Estilo de Treinamento Democrático
Licença Continental C
Determinação 11
Gestão de Pessoas 10
Motivação 7
Disciplina 12
Satisfação no Trabalho
50%
Fadiga
0%
Função Olheiro
Salário 67.8K p/s
Contrato 14.03.2030

Desempenho

Comportamento Normal
Eficácia do Treinamento
20%
Desenvolvimento do Jogador
50%
Prevenção de Lesões
55%
Implementação Tática
50%

Eventos Recentes

Participou de uma reunião de recrutamento agora
Avaliou um jogador agora
Avaliou um jogador agora
Avaliou um jogador agora
Avaliou um jogador 7d atrás
Avaliou um jogador 7d atrás
Avaliou um jogador 7d atrás
Avaliou um jogador 7d atrás

Monitorando agora

188
Jogador Clube Status Habilidade Confiança Observado Última observação Último voto
Munir Albacete Ativo 127 / 119 40% 7 01.04.2027 -
Florián Monzón Atlas Ativo 124 / 136 40% 2 01.04.2027 -
Carlos Fernández Oviedo Ativo 127 / 129 40% 1 01.04.2027 -
Mohamed Salah Trabzonspor Ativo 177 / 181 40% 12 31.03.2027 -
Paulinho Toluca Ativo 134 / 137 40% 3 31.03.2027 -
Óscar Plano Leganés Ativo 132 / 123 40% 10 30.03.2027 -
Adriano Bertaccini Anderlecht Ativo 126 / 117 40% 3 30.03.2027 -
Anthony Lozano Santos Laguna Ativo 128 / 116 40% 5 30.03.2027 -
Marcel Ruiz Toluca Ativo 141 / 132 40% 2 30.03.2027 -
Elijah Dijkstra Feyenoord Ativo 124 / 127 40% 2 30.03.2027 -
Helinho Toluca Ativo 135 / 121 40% 1 30.03.2027 -
Mathis Amougou RC Strasbourg Ativo 111 / 112 40% 1 30.03.2027 -
Juan Pablo De la Reta Maipú Ativo 110 / 119 40% 1 30.03.2027 -
Nacer Tielemans Mouscron Ativo 132 / 139 40% 4 28.03.2027 -
Enoch Mastoras Ajax Ativo 122 / 129 40% 1 28.03.2027 -
Romelu Lukaku Fenerbahce Ativo 163 / 153 40% 7 26.03.2027 -
Moussa Dembélé Al-Ettifaq Ativo 128 / 129 40% 6 26.03.2027 -
Hany Mukhtar Hamburger SV Ativo 134 / 132 40% 2 24.03.2027 -
Henry Martín Club America Ativo 132 / 124 40% 2 24.03.2027 -
Nazar Voloshyn Dynamo Kyiv Ativo 132 / 125 40% 2 24.03.2027 -
Vinícius Lopes Santa Clara Ativo 120 / 124 40% 1 24.03.2027 -
Abraham Marcus Estrela da Amadora Ativo 122 / 126 40% 1 24.03.2027 -
Gonzalo Plata Dinamo Moscow Ativo 137 / 135 40% 1 24.03.2027 -
Peter Shalulile Mamelodi Sundowns Ativo 128 / 115 40% 7 22.03.2027 -
Soufiane Rahimi Al Ain Ativo 143 / 131 40% 7 22.03.2027 -
Roger Brugué Levante Ativo 134 / 126 40% 6 22.03.2027 -
Erik Lira Cruz Azul Ativo 143 / 135 40% 2 21.03.2027 -
Federico Pereira Toluca Ativo 143 / 132 40% 3 21.03.2027 -
Ramón Juárez Club America Ativo 129 / 128 40% 1 21.03.2027 -
Luca Orellano Monterrey Ativo 137 / 134 40% 3 20.03.2027 -
Josh Coburn Millwall Ativo 120 / 117 40% 4 20.03.2027 -
Brian Rodríguez Club America Ativo 136 / 139 40% 4 18.03.2027 -
Julien Ponceau Valladolid Ativo 131 / 130 40% 1 18.03.2027 -
Bryan González Guadalajara Ativo 135 / 129 40% 1 18.03.2027 -
Fashion Sakala Al-Fayha Ativo 129 / 138 40% 3 17.03.2027 -
Jon Bautista Eibar Ativo 129 / 126 40% 1 17.03.2027 -
Iván Gil Eibar Ativo 126 / 124 40% 2 16.03.2027 -
Efraín Álvarez Guadalajara Ativo 127 / 124 40% 2 16.03.2027 -
Rey Manaj Sivasspor Ativo 131 / 122 40% 1 16.03.2027 -
César Huerta Pumas UNAM Ativo 132 / 133 40% 1 16.03.2027 -
Marquinhos Spartak Moscow Ativo 135 / 137 40% 1 16.03.2027 -
Ante Budimir Osasuna Ativo 148 / 141 40% 5 14.03.2027 -
Ismael Díaz Leon Ativo 133 / 114 40% 5 13.03.2027 -
Obed Vargas Atlético Madrid Ativo 125 / 132 40% 2 13.03.2027 -
John Okoye Ebuka Ittihad Ativo 113 / 119 40% 1 13.03.2027 -
Sergio Quintero La Equidad Ativo 137 / 139 40% 1 13.03.2027 -
Tiago Freitas Benfica Ativo 110 / 110 40% 1 13.03.2027 -
Ignacio Perruzzi San Lorenzo Ativo 126 / 130 40% 1 12.03.2027 -
Chema Andrés VfB Stuttgart Ativo 140 / 140 40% 1 12.03.2027 -
Marcus Holmgren Pedersen Olympiacos Ativo 136 / 128 40% 2 10.03.2027 -
Richard Ledezma Guadalajara Ativo 144 / 133 40% 3 10.03.2027 -
Jesús Orozco Chiquete Cruz Azul Ativo 127 / 131 40% 1 10.03.2027 -
Diber Cambindo Leon Ativo 123 / 130 40% 5 09.03.2027 -
Marlon Gomes Shakhtar Ativo 135 / 130 40% 1 09.03.2027 -
Víctor Guzmán Monterrey Ativo 133 / 126 40% 1 09.03.2027 -
Gustaf Lagerbielke Braga Ativo 139 / 137 40% 1 09.03.2027 -
Festy Ebosele Basaksehir Ativo 134 / 129 40% 1 07.03.2027 -
Bart van Rooij Twente Ativo 138 / 135 40% 1 07.03.2027 -
Facundo Garcés Alavés Ativo 128 / 126 40% 1 07.03.2027 -
Cesar Corona Veracruz Ativo 136 / 124 40% 4 05.03.2027 -
Gabriel Sara Galatasaray Ativo 141 / 146 40% 2 04.03.2027 -
Diego Costa Krasnodar Ativo 136 / 136 40% 2 04.03.2027 -
Patrik Wålemark Lech Ativo 130 / 119 40% 3 03.03.2027 -
Sadio Mané Al-Nassr Ativo 146 / 133 40% 6 27.02.2027 -
Mousa Meunier KV Oostende Ativo 127 / 127 40% 6 27.02.2027 -
Vitinho Botafogo Ativo 137 / 127 40% 1 27.02.2027 -
Joris Chotard Stade Brestois Ativo 130 / 138 40% 1 27.02.2027 -
Hugo Cuypers Monterrey Ativo 125 / 133 40% 2 21.02.2027 -
Iqraam Rayners Mamelodi Sundowns Ativo 132 / 141 40% 1 21.02.2027 -
Tyrell Malacia Leicester City Ativo 133 / 139 40% 1 19.02.2027 -
Peter Federico Gornik Zabrze Ativo 123 / 117 40% 2 17.02.2027 -
Metinho Basel Ativo 132 / 135 40% 1 17.02.2027 -
Lorenzo Pirola Olympiacos Ativo 134 / 141 40% 1 17.02.2027 -
Fidel Ambríz Monterrey Ativo 134 / 142 40% 1 17.02.2027 -
Ilias Sebaoui Sint-Truiden Ativo 132 / 125 40% 1 16.02.2027 -
Álex Lizancos Burgos Ativo 131 / 132 40% 1 16.02.2027 -
Sergey Pinyaev Lokomotiv Moscow Ativo 124 / 133 40% 3 15.02.2027 -
Jackson Muleka Konyaspor Ativo 131 / 133 40% 2 15.02.2027 -
Ousmane Camara Castellón Ativo 121 / 121 40% 1 15.02.2027 -
Brian Gutiérrez Guadalajara Ativo 132 / 139 40% 1 11.02.2027 -
Mario Stroeykens Anderlecht Ativo 125 / 135 40% 1 10.02.2027 -
Chupete Málaga Ativo 127 / 137 40% 2 08.02.2027 -
Jhon Córdoba Krasnodar Ativo 140 / 130 40% 1 07.02.2027 -
Achraf Bencharki Al Ahly Ativo 131 / 117 40% 2 06.02.2027 -
Nicolás Ibáñez Cruz Azul Ativo 139 / 129 40% 1 05.02.2027 -
Omar Campos Cruz Azul Ativo 128 / 134 40% 1 05.02.2027 -
Sergio Barreto Pachuca Ativo 129 / 142 40% 1 04.02.2027 -
Thierry Rendall Correia Venezia Ativo 141 / 143 40% 1 26.01.2027 -
José Arnáiz Granada Ativo 131 / 129 40% 4 24.01.2027 -
Luciano Gondou CSKA Moscow Ativo 126 / 121 40% 2 24.01.2027 -
Derry Scherhant SC Freiburg Ativo 124 / 123 40% 1 23.01.2027 -
Samuel Essende Young Boys Ativo 127 / 122 40% 9 22.01.2027 -
Andrej Kramarić TSG Hoffenheim Rejeitado 150 / 137 40% 3 22.01.2027 Rejeitar
Talisca Fenerbahce Ativo 141 / 135 40% 2 19.01.2027 -
Yassine Kechta Leganés Ativo 130 / 131 40% 1 15.01.2027 -
Francis Amuzu Grêmio Ativo 134 / 133 40% 1 15.01.2027 -
Anthony Patterson Wrexham Ativo 132 / 124 40% 5 02.01.2027 -
Heorhii Yermakov Metalist Ativo 120 / 111 40% 2 02.01.2027 -
Michael Cooper Sheffield United Ativo 126 / 131 40% 1 02.01.2027 -
Ante Budimir Osasuna Perdido 145 / 151 40% 5 31.12.2026 -
Michy Fellaini KV Oostende Ativo 133 / 140 40% 1 31.12.2026 -
Leo Román Deportivo La Coruña Ativo 145 / 145 40% 5 30.12.2026 -
Bernardo Fontes Braga Ativo 128 / 130 40% 3 30.12.2026 -
Karl Hein Werder Bremen Ativo 139 / 133 40% 3 30.12.2026 -
Chris Ramos Botafogo Ativo 130 / 121 40% 3 28.12.2026 -
Alexis Vega Toluca Ativo 150 / 144 40% 4 28.12.2026 -
George Wickens Lincoln City Ativo 111 / 108 40% 1 24.12.2026 -
Andreas Jungdal Westerlo Ativo 124 / 120 40% 1 24.12.2026 -
José Manuel López Palmeiras Ativo 137 / 132 40% 1 23.12.2026 -
Grégoire Coudert Burnley Ativo 127 / 135 40% 4 22.12.2026 -
Justin Hammel Grasshopper Ativo 119 / 123 40% 3 20.12.2026 -
Radek Vítek Middlesbrough Ativo 136 / 137 40% 4 20.12.2026 -
Kevin Behrens Lugano Ativo 122 / 122 40% 5 20.12.2026 -
Lazar Carević Famalicao Ativo 133 / 127 40% 1 20.12.2026 -
Philippe Keny Zurich Ativo 120 / 115 40% 1 18.12.2026 -
Yorbe Vertessen Red Bull Salzburg Ativo 127 / 134 40% 1 12.12.2026 -
Ivan Cavaleiro Zurich Ativo 116 / 114 40% 3 09.12.2026 -
Nikita Kokarev Krylya Sovetov Ativo 120 / 125 40% 1 07.12.2026 -
Pascal Loretz Luzern Ativo 124 / 123 40% 6 06.12.2026 -
Jakub Surovčík Sparta Prague Ativo 114 / 111 40% 1 06.12.2026 -
Gonzalo Crettaz NEC Ativo 130 / 125 40% 1 06.12.2026 -
Michaël Frey Grasshopper Ativo 116 / 119 40% 5 05.12.2026 -
Igor Nikić Mirandés Ativo 115 / 117 40% 3 03.12.2026 -
Jason Januzaj Mouscron Ativo 146 / 145 40% 1 03.12.2026 -
Axel Alderweireld KV Oostende Ativo 143 / 146 40% 2 01.12.2026 -
Niklas Steffen Thun Ativo 114 / 110 40% 3 01.12.2026 -
Guilherme Fernandes Córdoba Ativo 128 / 125 40% 1 01.12.2026 -
Henry Martín Club America Perdido 143 / 135 40% 6 29.11.2026 -
Nicolás Ibáñez Cruz Azul Perdido 131 / 139 40% 2 29.11.2026 -
Petter Nosa Dahl Rapid Wien Ativo 121 / 121 40% 2 28.11.2026 -
Maurits Kjærgaard Red Bull Salzburg Ativo 129 / 136 40% 3 27.11.2026 -
Matteo di Giusto Luzern Ativo 123 / 120 40% 4 26.11.2026 -
Johannes Eggestein Austria Wien Ativo 125 / 126 40% 1 26.11.2026 -
Luiz Júnior Villarreal Ativo 141 / 151 40% 2 25.11.2026 -
Hugo Souza Corinthians Ativo 136 / 132 40% 2 24.11.2026 -
Ben Voll St. Pauli Ativo 117 / 114 40% 2 23.11.2026 -
Beau Reus Waasland-Beveren Ativo 122 / 123 40% 1 23.11.2026 -
Antoine Griezmann Orlando City Ativo 159 / 162 40% 4 22.11.2026 -
Felipe Zenobio Tigre Ativo 129 / 131 40% 6 22.11.2026 -
Ruslan Neshcheret Dynamo Kyiv Ativo 122 / 116 40% 1 22.11.2026 -
Juan Carlos Arana Racing Santander Ativo 129 / 128 40% 1 21.11.2026 -
Jamie Cumming Oxford United Ativo 121 / 121 40% 2 18.11.2026 -
Carl Rushworth Coventry City Ativo 137 / 132 40% 1 18.11.2026 -
Donis Avdijaj Wolfsberger AC Ativo 116 / 122 40% 4 17.11.2026 -
Elia Caprile Cagliari Ativo 146 / 144 40% 1 15.11.2026 -
Josias Lukembila Sion Ativo 116 / 118 40% 3 14.11.2026 -
Mio Backhaus SC Freiburg Ativo 129 / 131 40% 2 12.11.2026 -
Christian Früchtl Red Bull Salzburg Ativo 118 / 112 40% 3 12.11.2026 -
Nicolás Sumavil Platense Ativo 114 / 112 40% 2 12.11.2026 -
Jonathan Calleri Sport Recife Ativo 137 / 135 40% 1 10.11.2026 -
Lukas Gütlbauer Wolfsberger AC Ativo 114 / 113 40% 2 02.11.2026 -
Jonmi Magunagoitia Eibar Ativo 123 / 118 40% 1 02.11.2026 -
Kostantis Tzolakis Hull City Ativo 143 / 142 40% 2 01.11.2026 -
Pablo Campos Levante Ativo 129 / 135 40% 1 30.10.2026 -
Marvin Keller Young Boys Ativo 138 / 142 40% 2 27.10.2026 -
Dmytro Riznyk Shakhtar Ativo 142 / 140 40% 1 27.10.2026 -
Sinan Karweina Luzern Ativo 115 / 108 40% 2 26.10.2026 -
Ilyas Chouaref Sion Ativo 118 / 119 40% 2 23.10.2026 -
Exequiel Zeballos Boca Juniors Ativo 135 / 134 40% 4 23.10.2026 -
Paulinho Toluca Perdido 139 / 130 40% 1 22.10.2026 -
Louis Munteanu DC United Ativo 123 / 117 40% 2 20.10.2026 -
Albian Ajeti Basel Ativo 118 / 122 40% 2 19.10.2026 -
Oli McBurnie Hull City Ativo 133 / 134 40% 1 18.10.2026 -
Michael Barrios Once Caldas Ativo 122 / 113 40% 1 15.10.2026 -
Mauro Silveira Junior Ativo 115 / 116 40% 1 14.10.2026 -
Talles Magno New York City Ativo 133 / 132 40% 1 09.10.2026 -
Denis Bouanga Los Angeles Football Club Ativo 137 / 141 40% 1 03.10.2026 -
Juan-José Perea Zurich Ativo 125 / 120 40% 1 03.10.2026 -
Leo Ceara Kashima Antlers Ativo 132 / 127 40% 1 02.10.2026 -
Ángel Correa River Plate Ativo 144 / 142 40% 2 01.10.2026 -
Anthony Racioppi Sion Ativo 122 / 124 40% 1 29.09.2026 -
Patrick Schulte Columbus Crew Ativo 124 / 125 40% 3 27.09.2026 -
James Trafford Leeds United Ativo 138 / 137 40% 3 25.09.2026 -
Luciano Jachfe Nueva Chicago Ativo 118 / 114 40% 1 18.09.2026 -
Chris Brady Chicago Fire Ativo 132 / 131 40% 1 18.09.2026 -
Danny Welbeck Chelsea Ativo 144 / 151 40% 1 17.09.2026 -
Antony Alonso Deportivo Riestra Ativo 125 / 124 40% 1 17.09.2026 -
Jakub Stolarczyk Leicester City Ativo 126 / 134 40% 1 16.09.2026 -
Felipe Parra Envigado Ativo 120 / 117 40% 1 14.09.2026 -
Daniil Khudyakov Sturm Graz Ativo 121 / 118 40% 1 14.09.2026 -
Abel Hernández Penarol Ativo 127 / 128 40% 1 10.09.2026 -
Jonas Urbig Bayern Munich Ativo 139 / 133 40% 1 09.09.2026 -
Martín Ojeda Orlando City Ativo 137 / 135 40% 2 02.09.2026 -
Dejan Joveljić Seattle Sounders Ativo 130 / 136 40% 1 02.09.2026 -
Seedy Jatta Sturm Graz Ativo 120 / 122 40% 1 18.08.2026 -
Daniel Dos Santos Lugano Ativo 113 / 128 40% 1 10.08.2026 -
Uwe Franke Mouscron Ativo 134 / 123 40% 2 03.08.2026 -
Darian Maleš Young Boys Ativo 119 / 122 40% 1 01.08.2026 -